Time;durP1;ratioP1;P1;durP2;ratioP2;P2;SDS_P1;SDS_P2;PMS_P1;PMS_P2;Temp;Humidity;BMP_temperature;BMP_pressure;BME280_temperature;BME280_humidity;BME280_pressure;Samples;Min_cycle;Max_cycle;Signal;HPM_P1;HPM_P2
2021/06/21 00:00:14;;;;;;;23.27;20.75;;;;;18.00;100065.00;;;;10469742;28;20636;-76
2021/06/21 00:05:17;;;;;;;23.92;20.83;;;;;18.00;100051.00;;;;10484638;28;20293;-76
2021/06/21 00:10:20;;;;;;;24.38;21.20;;;;;17.90;100042.00;;;;10466102;28;20688;-76
2021/06/21 00:15:25;;;;;;;25.98;22.20;;;;;17.80;100036.00;;;;10465895;28;20247;-76
2021/06/21 00:20:27;;;;;;;25.65;22.77;;;;;17.80;100042.00;;;;10498653;28;20336;-76
2021/06/21 00:25:29;;;;;;;26.45;22.48;;;;;17.80;100041.00;;;;10491278;28;20204;-76
2021/06/21 00:30:35;;;;;;;30.02;24.35;;;;;17.80;100038.00;;;;10492346;28;20193;-77
2021/06/21 00:35:37;;;;;;;31.60;25.65;;;;;17.70;100042.00;;;;10490996;28;20262;-76
2021/06/21 00:40:39;;;;;;;29.20;23.63;;;;;17.70;100040.00;;;;10542803;28;20918;-76
2021/06/21 00:45:41;;;;;;;26.52;23.17;;;;;17.70;100047.00;;;;10508732;28;20683;-77
2021/06/21 00:50:43;;;;;;;27.85;24.83;;;;;17.70;100045.00;;;;10487652;28;20205;-77
2021/06/21 00:55:45;;;;;;;26.35;23.63;;;;;17.70;100049.00;;;;10468458;28;20549;-77
2021/06/21 01:00:48;;;;;;;28.83;24.33;;;;;17.70;100050.00;;;;10454124;28;20198;-77
2021/06/21 01:05:50;;;;;;;27.92;24.00;;;;;17.60;100063.00;;;;10506922;28;20243;-77
2021/06/21 01:10:53;;;;;;;33.43;25.67;;;;;17.60;100058.00;;;;10453969;28;20654;-77
2021/06/21 01:16:13;;;;;;;29.00;24.42;;;;;17.60;100063.00;;;;10469764;28;20200;-77
2021/06/21 01:21:52;;;;;;;26.48;23.63;;;;;17.60;100066.00;;;;10454315;28;20671;-77
2021/06/21 01:27:00;;;;;;;28.97;24.03;;;;;17.60;100061.00;;;;10491050;28;20185;-78
2021/06/21 01:32:09;;;;;;;28.27;24.33;;;;;17.60;100053.00;;;;10480975;28;20564;-77
2021/06/21 01:37:13;;;;;;;24.80;21.53;;;;;17.50;100046.00;;;;10511213;28;20254;-77
2021/06/21 01:42:19;;;;;;;23.67;21.13;;;;;17.40;100026.00;;;;10513092;28;20272;-77
2021/06/21 01:47:41;;;;;;;23.58;21.08;;;;;17.40;100047.00;;;;10495244;28;20644;-77
2021/06/21 01:52:44;;;;;;;32.13;21.70;;;;;17.30;100047.00;;;;10460893;28;20659;-77
2021/06/21 01:57:47;;;;;;;26.97;21.70;;;;;17.30;100048.00;;;;10495224;28;20192;-77
2021/06/21 02:02:52;;;;;;;26.20;21.10;;;;;17.30;100056.00;;;;10530842;28;20285;-78
2021/06/21 02:07:55;;;;;;;26.77;21.70;;;;;17.20;100057.00;;;;10487948;28;20189;-77
2021/06/21 02:12:57;;;;;;;24.70;20.33;;;;;17.20;100066.00;;;;10454510;28;20676;-77
2021/06/21 02:18:00;;;;;;;25.27;21.27;;;;;17.20;100056.00;;;;10471257;28;20205;-77
2021/06/21 02:23:03;;;;;;;23.25;20.85;;;;;17.20;100046.00;;;;10453983;28;20292;-78
2021/06/21 02:28:05;;;;;;;22.63;20.23;;;;;17.20;100042.00;;;;10483996;28;20193;-77
2021/06/21 02:33:07;;;;;;;25.57;20.60;;;;;17.10;100038.00;;;;10469586;28;20247;-77
2021/06/21 02:38:09;;;;;;;25.50;20.93;;;;;17.10;100029.00;;;;10512572;28;20205;-77
2021/06/21 02:43:12;;;;;;;23.57;20.53;;;;;17.10;100038.00;;;;10528775;28;20181;-77
2021/06/21 02:48:14;;;;;;;20.43;18.30;;;;;17.10;100044.00;;;;10494039;28;20185;-77
2021/06/21 02:53:31;;;;;;;21.52;18.80;;;;;17.10;100034.00;;;;10507813;28;20692;-77
2021/06/21 02:58:37;;;;;;;20.43;18.07;;;;;17.10;100037.00;;;;10524299;28;20193;-77
2021/06/21 03:03:44;;;;;;;20.93;17.87;;;;;17.00;100040.00;;;;10460654;28;20656;-77
2021/06/21 03:08:48;;;;;;;18.97;16.93;;;;;17.00;100036.00;;;;10492148;28;20200;-77
2021/06/21 03:13:53;;;;;;;18.03;16.23;;;;;16.90;100033.00;;;;10454908;28;20627;-77
2021/06/21 03:18:55;;;;;;;16.13;14.50;;;;;16.90;100041.00;;;;10497573;28;20197;-77
2021/06/21 03:23:57;;;;;;;13.10;11.80;;;;;16.80;100042.00;;;;10479844;28;20225;-77
2021/06/21 03:28:59;;;;;;;13.43;11.30;;;;;16.70;100047.00;;;;10472485;28;20197;-77
2021/06/21 03:34:01;;;;;;;14.40;11.27;;;;;16.60;100039.00;;;;10441897;28;20217;-77
2021/06/21 03:39:03;;;;;;;12.13;10.20;;;;;16.50;100050.00;;;;10469483;28;20201;-77
2021/06/21 03:44:05;;;;;;;10.97;9.87;;;;;16.40;100058.00;;;;10472511;28;20185;-77
2021/06/21 03:49:07;;;;;;;11.67;10.30;;;;;16.40;100064.00;;;;10489251;28;20190;-77
2021/06/21 03:54:10;;;;;;;13.27;9.97;;;;;16.30;100064.00;;;;10508021;28;20264;-78
2021/06/21 03:59:11;;;;;;;12.23;8.90;;;;;16.20;100065.00;;;;10495244;28;20242;-77
2021/06/21 04:04:13;;;;;;;10.83;9.80;;;;;16.10;100068.00;;;;10479312;28;20280;-76
2021/06/21 04:09:15;;;;;;;11.27;10.07;;;;;16.10;100069.00;;;;10486947;28;20186;-76
2021/06/21 04:14:17;;;;;;;10.50;9.50;;;;;16.00;100083.00;;;;10504056;28;20288;-77
2021/06/21 04:19:19;;;;;;;11.77;9.93;;;;;16.00;100096.00;;;;10485787;28;20220;-77
2021/06/21 04:24:21;;;;;;;12.07;10.43;;;;;16.00;100092.00;;;;10469252;28;20675;-77
2021/06/21 04:29:23;;;;;;;10.70;9.60;;;;;15.90;100090.00;;;;10485556;28;20197;-76
2021/06/21 04:34:25;;;;;;;11.37;9.83;;;;;15.90;100102.00;;;;10469585;28;20700;-77
2021/06/21 04:39:27;;;;;;;10.57;9.63;;;;;15.80;100102.00;;;;10482529;28;20205;-77
2021/06/21 04:44:29;;;;;;;10.10;9.10;;;;;15.80;100106.00;;;;10512653;28;20381;-77
2021/06/21 04:49:31;;;;;;;10.67;9.30;;;;;15.70;100106.00;;;;10494265;28;20287;-77
2021/06/21 04:54:33;;;;;;;10.63;9.53;;;;;15.70;100109.00;;;;10501144;28;20288;-77
2021/06/21 04:59:35;;;;;;;11.37;10.17;;;;;15.70;100110.00;;;;10471561;28;20284;-77
2021/06/21 05:04:37;;;;;;;10.90;9.80;;;;;15.70;100105.00;;;;10501616;28;20197;-77
2021/06/21 05:09:39;;;;;;;10.67;9.57;;;;;15.70;100105.00;;;;10492852;28;20264;-77
2021/06/21 05:14:41;;;;;;;10.57;9.23;;;;;15.60;100110.00;;;;10488310;28;20622;-77
2021/06/21 05:19:44;;;;;;;10.33;8.97;;;;;15.60;100108.00;;;;10475748;28;20204;-77
2021/06/21 05:24:46;;;;;;;10.17;9.13;;;;;15.70;100118.00;;;;10487963;28;20200;-76
2021/06/21 05:29:48;;;;;;;9.90;8.90;;;;;15.70;100131.00;;;;10520789;28;20197;-76
2021/06/21 05:34:50;;;;;;;11.93;8.73;;;;;15.80;100141.00;;;;10482038;28;20219;-77
2021/06/21 05:39:52;;;;;;;10.50;9.40;;;;;15.70;100147.00;;;;10509824;28;20204;-77
2021/06/21 05:44:54;;;;;;;9.80;8.23;;;;;15.60;100154.00;;;;10477456;28;20730;-77
2021/06/21 05:49:56;;;;;;;8.97;7.83;;;;;15.60;100161.00;;;;10450298;28;20220;-77
2021/06/21 05:54:59;;;;;;;7.60;6.83;;;;;15.70;100169.00;;;;10505542;28;20212;-77
2021/06/21 06:00:06;;;;;;;8.33;7.50;;;;;15.70;100178.00;;;;10470049;28;20262;-76
2021/06/21 06:05:24;;;;;;;10.10;8.90;;;;;15.70;100197.00;;;;10500256;28;20212;-77
2021/06/21 06:10:26;;;;;;;9.67;8.67;;;;;15.70;100206.00;;;;10485252;28;20205;-76
2021/06/21 06:15:28;;;;;;;9.33;8.43;;;;;15.70;100223.00;;;;10473856;28;20197;-77
2021/06/21 06:20:31;;;;;;;9.47;8.57;;;;;15.60;100240.00;;;;10468047;28;20202;-76
2021/06/21 06:25:33;;;;;;;9.07;7.70;;;;;15.60;100256.00;;;;10485803;28;20288;-76
2021/06/21 06:30:35;;;;;;;8.97;8.03;;;;;15.60;100246.00;;;;10437957;28;20221;-77
2021/06/21 06:35:37;;;;;;;9.53;8.57;;;;;15.70;100245.00;;;;10482303;28;20918;-77
2021/06/21 06:40:41;;;;;;;10.97;9.20;;;;;15.70;100247.00;;;;10476521;28;20576;-77
2021/06/21 06:45:43;;;;;;;9.50;8.50;;;;;15.80;100246.00;;;;10460011;28;20240;-77
2021/06/21 06:50:45;;;;;;;7.33;6.63;;;;;15.90;100227.00;;;;10464781;28;20201;-76
2021/06/21 07:01:08;;;;;;;6.90;5.77;;;;;15.90;100228.00;;;;10497349;28;20196;-76
2021/06/21 07:06:11;;;;;;;8.13;6.00;;;;;15.80;100238.00;;;;10480207;28;20266;-76
2021/06/21 07:11:15;;;;;;;6.27;5.67;;;;;15.80;100230.00;;;;10501321;28;20261;-76
2021/06/21 07:16:17;;;;;;;7.07;6.37;;;;;15.80;100227.00;;;;10517776;28;20199;-76
2021/06/21 07:21:19;;;;;;;7.37;6.07;;;;;15.70;100190.00;;;;10510961;28;20624;-76
2021/06/21 07:26:21;;;;;;;6.43;5.77;;;;;15.60;100162.00;;;;10523969;28;20197;-76
2021/06/21 07:31:23;;;;;;;5.53;5.03;;;;;15.40;100160.00;;;;10513817;28;20208;-76
2021/06/21 07:36:25;;;;;;;6.37;5.37;;;;;15.30;100162.00;;;;10481065;28;20587;-76
2021/06/21 07:41:27;;;;;;;5.30;4.80;;;;;15.50;100170.00;;;;10485661;28;20193;-76
2021/06/21 07:46:29;;;;;;;4.93;4.50;;;;;15.70;100230.00;;;;10466941;28;20211;-76
2021/06/21 07:51:31;;;;;;;5.43;4.40;;;;;15.70;100280.00;;;;10481236;28;20201;-76
2021/06/21 07:56:34;;;;;;;6.47;5.00;;;;;15.50;100296.00;;;;10503250;28;20185;-76
2021/06/21 08:01:36;;;;;;;5.23;4.70;;;;;15.70;100302.00;;;;10487637;28;20185;-76
2021/06/21 08:06:38;;;;;;;5.67;5.00;;;;;16.30;100280.00;;;;10485715;28;20599;-76
2021/06/21 08:11:40;;;;;;;6.13;4.27;;;;;17.00;100266.00;;;;10524484;28;20212;-76
2021/06/21 08:16:42;;;;;;;5.37;4.63;;;;;17.60;100251.00;;;;10547935;28;20188;-76
2021/06/21 08:21:44;;;;;;;5.33;4.83;;;;;18.20;100238.00;;;;10514481;28;20648;-76
2021/06/21 08:27:02;;;;;;;5.67;5.10;;;;;18.60;100238.00;;;;10496730;28;20205;-76
2021/06/21 08:32:11;;;;;;;5.20;4.70;;;;;19.60;100263.00;;;;10518045;28;20225;-76
2021/06/21 08:37:13;;;;;;;5.10;4.60;;;;;19.70;100288.00;;;;10512548;28;20203;-76
2021/06/21 08:42:16;;;;;;;4.50;4.10;;;;;19.60;100295.00;;;;10487402;28;20196;-76
2021/06/21 08:47:19;;;;;;;4.40;4.07;;;;;19.50;100307.00;;;;10522223;28;20191;-76
2021/06/21 08:52:24;;;;;;;4.28;3.97;;;;;19.70;100340.00;;;;10483754;28;20300;-76
2021/06/21 08:57:26;;;;;;;4.63;4.22;;;;;20.20;100348.00;;;;10503003;28;20188;-76
2021/06/21 09:02:28;;;;;;;5.43;3.90;;;;;20.80;100353.00;;;;10504027;28;20239;-76
2021/06/21 09:07:30;;;;;;;4.40;4.00;;;;;20.60;100369.00;;;;10489124;28;20209;-76
2021/06/21 09:12:32;;;;;;;5.78;5.18;;;;;20.10;100381.00;;;;10519984;28;20197;-76
2021/06/21 09:17:38;;;;;;;4.68;4.28;;;;;19.70;100385.00;;;;10503076;28;20283;-76
2021/06/21 09:22:50;;;;;;;5.93;5.20;;;;;19.60;100385.00;;;;10468539;28;20192;-75
2021/06/21 09:27:55;;;;;;;4.75;4.35;;;;;19.30;100398.00;;;;10500715;28;20192;-76
2021/06/21 09:32:59;;;;;;;4.28;3.88;;;;;18.90;100403.00;;;;10456377;28;20300;-76
2021/06/21 09:38:13;;;;;;;5.03;4.55;;;;;18.60;100407.00;;;;10526542;28;20212;-77
2021/06/21 09:43:26;;;;;;;5.63;5.13;;;;;18.30;100415.00;;;;10560074;28;20196;-76
2021/06/21 09:48:34;;;;;;;4.32;3.92;;;;;18.50;100403.00;;;;10509849;28;20191;-75
2021/06/21 09:53:35;;;;;;;4.65;4.25;;;;;18.50;100411.00;;;;10512402;28;20201;-76
2021/06/21 09:58:37;;;;;;;6.22;4.20;;;;;18.40;100415.00;;;;10484514;28;20208;-76
2021/06/21 10:03:43;;;;;;;4.55;4.15;;;;;18.40;100429.00;;;;10517772;28;20247;-76
2021/06/21 10:08:50;;;;;;;5.50;5.00;;;;;18.10;100430.00;;;;10487902;28;20185;-76
2021/06/21 10:13:52;;;;;;;5.70;5.20;;;;;17.60;100442.00;;;;10526411;28;20560;-76
2021/06/21 10:18:55;;;;;;;5.22;4.72;;;;;17.70;100452.00;;;;10476265;28;20196;-75
2021/06/21 10:23:57;;;;;;;5.15;4.75;;;;;17.90;100453.00;;;;10497673;28;20200;-76
2021/06/21 10:28:59;;;;;;;6.07;4.40;;;;;18.10;100455.00;;;;10473887;28;20198;-76
2021/06/21 10:34:06;;;;;;;5.28;4.78;;;;;18.30;100459.00;;;;10476277;28;20260;-75
2021/06/21 10:39:14;;;;;;;4.70;4.30;;;;;18.40;100463.00;;;;10475366;28;20204;-75
2021/06/21 10:44:58;;;;;;;4.45;4.05;;;;;18.40;100454.00;;;;10491526;28;20204;-76
2021/06/21 10:50:21;;;;;;;5.03;4.53;;;;;18.50;100464.00;;;;10480635;28;20845;-76
2021/06/21 10:55:25;;;;;;;6.53;4.70;;;;;18.50;100468.00;;;;10465007;28;20213;-76
2021/06/21 11:00:42;;;;;;;5.00;4.60;;;;;18.50;100478.00;;;;10513953;28;20217;-76
2021/06/21 11:05:44;;;;;;;4.68;4.28;;;;;18.40;100490.00;;;;10499341;28;20186;-76
2021/06/21 11:10:53;;;;;;;4.90;4.50;;;;;18.20;100483.00;;;;10497456;28;20211;-75
2021/06/21 11:16:14;;;;;;;5.22;4.60;;;;;18.20;100490.00;;;;10503107;28;20201;-76
2021/06/21 11:21:19;;;;;;;5.85;5.35;;;;;18.10;100496.00;;;;10511787;28;20196;-76
2021/06/21 11:26:58;;;;;;;5.88;5.38;;;;;18.20;100497.00;;;;10463341;28;20242;-76
2021/06/21 11:32:04;;;;;;;6.82;6.22;;;;;18.40;100490.00;;;;10492945;28;20706;-76
2021/06/21 11:37:34;;;;;;;7.45;6.70;;;;;18.50;100500.00;;;;10474809;28;20251;-76
2021/06/21 11:42:36;;;;;;;7.50;6.78;;;;;18.20;100503.00;;;;10481365;28;20193;-76
2021/06/21 11:47:39;;;;;;;6.80;6.18;;;;;18.20;100508.00;;;;10499671;28;20713;-76
2021/06/21 11:52:42;;;;;;;6.43;5.85;;;;;18.30;100518.00;;;;10504734;28;20227;-76
2021/06/21 11:57:49;;;;;;;7.20;6.50;;;;;18.30;100520.00;;;;10514534;28;20197;-76
2021/06/21 12:03:00;;;;;;;7.35;6.60;;;;;18.20;100529.00;;;;10481100;28;20691;-76
2021/06/21 12:08:13;;;;;;;8.02;7.22;;;;;18.20;100528.00;;;;10471421;28;20206;-76
2021/06/21 12:13:21;;;;;;;8.50;7.70;;;;;18.10;100536.00;;;;10521855;28;20262;-76
2021/06/21 12:18:26;;;;;;;6.30;5.80;;;;;18.30;100535.00;;;;10521346;28;20715;-75
2021/06/21 12:23:30;;;;;;;6.25;5.75;;;;;18.80;100537.00;;;;10474804;28;20594;-76
2021/06/21 12:28:32;;;;;;;8.70;7.50;;;;;19.80;100534.00;;;;10504020;28;20207;-76
2021/06/21 12:33:39;;;;;;;9.25;8.38;;;;;20.30;100532.00;;;;10520773;28;20223;-76
2021/06/21 12:38:50;;;;;;;8.43;7.65;;;;;20.40;100533.00;;;;10521778;28;20197;-77
2021/06/21 12:43:58;;;;;;;8.85;7.93;;;;;20.10;100532.00;;;;10494849;28;20255;-77
2021/06/21 12:49:04;;;;;;;8.57;7.78;;;;;19.60;100538.00;;;;10531735;28;20181;-76
2021/06/21 12:54:08;;;;;;;7.22;6.63;;;;;19.30;100544.00;;;;10502356;28;20300;-76
2021/06/21 12:59:30;;;;;;;7.60;6.90;;;;;18.90;100545.00;;;;10502839;28;20193;-76
2021/06/21 13:04:33;;;;;;;7.85;7.15;;;;;19.10;100544.00;;;;10519610;28;20931;-76
2021/06/21 13:09:48;;;;;;;7.90;7.20;;;;;18.90;100532.00;;;;10486707;28;20184;-76
2021/06/21 13:15:01;;;;;;;9.00;8.20;;;;;18.70;100536.00;;;;10527797;28;20217;-76
2021/06/21 13:20:13;;;;;;;10.00;9.00;;;;;18.80;100518.00;;;;10514134;28;20211;-76
2021/06/21 13:25:35;;;;;;;13.40;12.18;;;;;19.00;100526.00;;;;10484884;28;20242;-76
2021/06/21 13:30:41;;;;;;;12.80;11.45;;;;;18.90;100515.00;;;;10529929;28;20276;-76
2021/06/21 13:35:58;;;;;;;12.07;10.98;;;;;18.70;100541.00;;;;10483209;28;20220;-76
2021/06/21 13:41:04;;;;;;;12.40;11.20;;;;;18.40;100556.00;;;;10499717;28;20193;-76
2021/06/21 13:46:20;;;;;;;11.95;10.85;;;;;18.20;100558.00;;;;10467204;28;20192;-76
2021/06/21 13:51:26;;;;;;;13.85;12.45;;;;;18.10;100555.00;;;;10546673;28;20195;-76
2021/06/21 13:56:35;;;;;;;13.98;12.55;;;;;18.10;100542.00;;;;10484202;28;20189;-76
2021/06/21 14:01:49;;;;;;;14.05;12.68;;;;;18.40;100538.00;;;;10496925;28;20200;-76
2021/06/21 14:06:51;;;;;;;14.95;13.35;;;;;18.60;100544.00;;;;10526218;28;20203;-76
2021/06/21 14:11:53;;;;;;;15.93;14.23;;;;;18.30;100563.00;;;;10541436;28;20208;-76
2021/06/21 14:16:55;;;;;;;15.73;14.13;;;;;18.20;100572.00;;;;10516281;28;20185;-76
2021/06/21 14:21:58;;;;;;;16.50;13.95;;;;;18.30;100577.00;;;;10483436;28;20193;-73
2021/06/21 14:27:02;;;;;;;15.18;13.68;;;;;18.50;100578.00;;;;10524221;28;20195;-74
2021/06/21 14:32:04;;;;;;;15.70;14.02;;;;;18.90;100568.00;;;;10516740;28;20216;-75
2021/06/21 14:37:07;;;;;;;15.70;14.20;;;;;19.10;100558.00;;;;10500020;28;20211;-75
2021/06/21 14:42:09;;;;;;;15.60;14.00;;;;;18.70;100548.00;;;;10482491;28;20189;-74
2021/06/21 14:47:11;;;;;;;16.00;14.30;;;;;19.70;100547.00;;;;10499882;28;20197;-74
2021/06/21 14:52:12;;;;;;;14.63;13.25;;;;;20.50;100560.00;;;;10514176;28;20210;-74
2021/06/21 14:57:17;;;;;;;14.45;13.07;;;;;20.90;100556.00;;;;10498834;28;20193;-74
2021/06/21 15:02:19;;;;;;;14.50;13.00;;;;;20.60;100569.00;;;;10483072;28;20248;-74
2021/06/21 15:07:20;;;;;;;13.52;12.32;;;;;19.80;100592.00;;;;10448982;28;20243;-74
2021/06/21 15:12:22;;;;;;;16.10;14.50;;;;;19.40;100592.00;;;;10492739;28;20761;-74
2021/06/21 15:17:24;;;;;;;16.83;15.15;;;;;19.40;100598.00;;;;10523893;28;20193;-74
2021/06/21 15:22:26;;;;;;;16.10;14.60;;;;;19.40;100604.00;;;;10546999;28;20211;-74
2021/06/21 15:27:28;;;;;;;15.65;14.15;;;;;19.10;100615.00;;;;10548631;28;20180;-74
2021/06/21 15:32:30;;;;;;;16.75;15.15;;;;;19.10;100620.00;;;;10516064;28;20221;-74
2021/06/21 15:37:32;;;;;;;14.68;13.27;;;;;19.30;100615.00;;;;10489454;28;20212;-74
2021/06/21 15:42:35;;;;;;;14.18;12.85;;;;;19.10;100625.00;;;;10479492;28;20204;-74
2021/06/21 15:47:37;;;;;;;14.70;12.60;;;;;19.10;100606.00;;;;10521285;28;20193;-74
2021/06/21 15:52:40;;;;;;;13.65;12.45;;;;;19.70;100601.00;;;;10517900;28;20281;-74
2021/06/21 15:57:50;;;;;;;13.13;11.68;;;;;19.90;100608.00;;;;10484142;28;20198;-74
2021/06/21 16:02:53;;;;;;;12.18;11.02;;;;;19.50;100611.00;;;;10490000;28;20189;-74
2021/06/21 16:07:55;;;;;;;11.15;10.13;;;;;19.20;100617.00;;;;10507564;28;20536;-74
2021/06/21 16:12:58;;;;;;;11.45;10.45;;;;;19.40;100607.00;;;;10543151;28;20205;-74
2021/06/21 16:18:00;;;;;;;11.00;10.10;;;;;19.10;100613.00;;;;10481419;28;20698;-74
2021/06/21 16:23:04;;;;;;;11.45;10.43;;;;;19.10;100613.00;;;;10469138;28;20194;-74
2021/06/21 16:28:07;;;;;;;11.07;10.10;;;;;19.60;100600.00;;;;10482921;28;20521;-74
2021/06/21 16:33:10;;;;;;;12.75;11.65;;;;;20.30;100597.00;;;;10471517;28;20213;-74
2021/06/21 16:38:13;;;;;;;13.70;12.50;;;;;20.20;100629.00;;;;10523214;28;20735;-74
2021/06/21 16:43:15;;;;;;;12.77;11.57;;;;;19.50;100626.00;;;;10465011;28;20197;-74
2021/06/21 16:48:17;;;;;;;11.50;10.50;;;;;19.30;100615.00;;;;10481660;28;20221;-75
2021/06/21 16:53:19;;;;;;;11.50;10.50;;;;;20.20;100592.00;;;;10476474;28;20219;-74
2021/06/21 16:58:21;;;;;;;11.10;10.10;;;;;20.60;100591.00;;;;10505880;28;20880;-74
2021/06/21 17:03:23;;;;;;;10.88;9.77;;;;;20.20;100598.00;;;;10506761;28;20197;-74
2021/06/21 17:08:25;;;;;;;10.10;9.20;;;;;19.70;100619.00;;;;10523029;28;20184;-74
2021/06/21 17:13:27;;;;;;;11.00;10.05;;;;;19.40;100618.00;;;;10540711;28;20215;-74
2021/06/21 17:18:29;;;;;;;9.43;8.52;;;;;19.20;100607.00;;;;10520880;28;20201;-74
2021/06/21 17:23:32;;;;;;;9.30;8.40;;;;;19.10;100621.00;;;;10491909;28;20204;-74
2021/06/21 17:28:40;;;;;;;8.68;7.97;;;;;18.80;100627.00;;;;10497903;28;20239;-74
2021/06/21 17:33:42;;;;;;;8.65;7.75;;;;;18.70;100627.00;;;;10497783;28;20208;-74
2021/06/21 17:38:43;;;;;;;8.60;7.90;;;;;18.50;100633.00;;;;10479668;28;20662;-75
2021/06/21 17:43:45;;;;;;;8.80;8.00;;;;;18.20;100655.00;;;;10497691;28;20193;-74
2021/06/21 17:48:47;;;;;;;9.23;8.35;;;;;17.90;100664.00;;;;10496191;28;20236;-74
2021/06/21 17:53:49;;;;;;;7.78;7.07;;;;;17.80;100644.00;;;;10447026;28;20204;-75
2021/06/21 17:58:51;;;;;;;8.82;8.02;;;;;17.80;100650.00;;;;10504451;28;20599;-75
2021/06/21 18:03:54;;;;;;;8.30;7.45;;;;;17.80;100660.00;;;;10520729;28;20189;-75
2021/06/21 18:08:57;;;;;;;9.38;7.82;;;;;17.80;100646.00;;;;10487660;28;20590;-75
2021/06/21 18:13:59;;;;;;;10.38;8.98;;;;;17.90;100652.00;;;;10517939;28;20205;-75
2021/06/21 18:19:01;;;;;;;9.13;8.20;;;;;17.90;100653.00;;;;10463176;28;20225;-75
2021/06/21 18:24:05;;;;;;;8.63;7.70;;;;;17.80;100646.00;;;;10480620;28;20246;-75
2021/06/21 18:29:07;;;;;;;8.70;7.95;;;;;17.70;100655.00;;;;10541538;28;20843;-75
2021/06/21 18:34:09;;;;;;;8.10;7.40;;;;;17.70;100660.00;;;;10495150;28;20220;-75
2021/06/21 18:39:11;;;;;;;8.02;7.32;;;;;17.50;100673.00;;;;10481415;28;20221;-75
2021/06/21 18:44:13;;;;;;;8.57;7.60;;;;;17.40;100674.00;;;;10469713;28;20239;-75
2021/06/21 18:49:15;;;;;;;8.55;6.88;;;;;17.30;100680.00;;;;10486767;28;20206;-75
2021/06/21 18:54:17;;;;;;;6.63;6.03;;;;;17.10;100683.00;;;;10486641;28;20209;-75
2021/06/21 18:59:19;;;;;;;6.45;5.90;;;;;17.00;100681.00;;;;10489985;28;20199;-75
2021/06/21 19:04:21;;;;;;;6.82;6.22;;;;;16.80;100693.00;;;;10527831;28;20193;-75
2021/06/21 19:09:23;;;;;;;8.53;6.53;;;;;16.70;100716.00;;;;10527958;28;20195;-75
2021/06/21 19:14:25;;;;;;;7.43;6.72;;;;;16.70;100719.00;;;;10545211;28;20205;-75
2021/06/21 19:19:28;;;;;;;7.95;6.93;;;;;16.60;100713.00;;;;10493644;28;20204;-75
2021/06/21 19:24:31;;;;;;;9.43;7.43;;;;;16.60;100710.00;;;;10470673;28;20775;-75
2021/06/21 19:29:33;;;;;;;10.23;7.40;;;;;16.60;100721.00;;;;10502449;28;20641;-75
2021/06/21 19:34:35;;;;;;;7.73;6.93;;;;;16.50;100698.00;;;;10451962;28;20320;-74
2021/06/21 19:39:37;;;;;;;7.07;6.47;;;;;16.40;100686.00;;;;10466915;28;20198;-75
2021/06/21 19:44:39;;;;;;;7.73;6.90;;;;;16.30;100714.00;;;;10450910;28;20205;-74
2021/06/21 19:49:41;;;;;;;9.23;6.33;;;;;16.30;100719.00;;;;10483548;28;20829;-75
2021/06/21 19:54:43;;;;;;;7.10;6.40;;;;;16.20;100727.00;;;;10450392;28;20702;-75
2021/06/21 19:59:46;;;;;;;8.27;7.40;;;;;16.20;100733.00;;;;10499561;28;20280;-75
2021/06/21 20:04:48;;;;;;;7.77;7.07;;;;;16.00;100742.00;;;;10460195;28;20205;-75
2021/06/21 20:09:52;;;;;;;9.50;6.50;;;;;16.00;100758.00;;;;10467450;28;20181;-75
2021/06/21 20:14:54;;;;;;;7.20;6.47;;;;;15.90;100754.00;;;;10466203;28;20217;-74
2021/06/21 20:19:56;;;;;;;7.00;6.23;;;;;15.80;100766.00;;;;10466164;28;20200;-75
2021/06/21 20:24:58;;;;;;;8.13;7.43;;;;;15.80;100780.00;;;;10509393;28;20193;-75
2021/06/21 20:30:04;;;;;;;6.63;6.13;;;;;15.80;100801.00;;;;10490875;28;20193;-75
2021/06/21 20:35:10;;;;;;;6.47;5.87;;;;;15.80;100802.00;;;;10524565;28;20201;-76
2021/06/21 20:40:13;;;;;;;6.60;5.63;;;;;15.80;100780.00;;;;10507195;28;20221;-75
2021/06/21 20:45:15;;;;;;;8.90;5.60;;;;;15.80;100785.00;;;;10523547;28;20548;-75
2021/06/21 20:50:20;;;;;;;6.57;5.30;;;;;15.70;100778.00;;;;10523618;28;20188;-75
2021/06/21 20:55:23;;;;;;;9.40;4.73;;;;;15.70;100793.00;;;;10489883;28;20212;-75
2021/06/21 21:00:29;;;;;;;7.07;4.60;;;;;15.70;100802.00;;;;10507157;28;20528;-75
2021/06/21 21:05:31;;;;;;;5.50;4.50;;;;;15.70;100813.00;;;;10489222;28;20193;-75
2021/06/21 21:10:34;;;;;;;5.23;4.10;;;;;15.70;100825.00;;;;10505157;28;20197;-75
2021/06/21 21:15:36;;;;;;;6.17;4.30;;;;;15.60;100830.00;;;;10480120;28;20568;-75
2021/06/21 21:20:38;;;;;;;4.77;4.37;;;;;15.60;100825.00;;;;10464023;28;20197;-75
2021/06/21 21:25:40;;;;;;;4.73;4.23;;;;;15.60;100835.00;;;;10453828;28;20568;-75
2021/06/21 21:30:44;;;;;;;4.60;4.13;;;;;15.60;100838.00;;;;10464139;28;20818;-75
2021/06/21 21:35:46;;;;;;;8.50;4.00;;;;;15.60;100838.00;;;;10463139;28;20668;-75
2021/06/21 21:40:48;;;;;;;4.50;4.10;;;;;15.60;100824.00;;;;10447032;28;20232;-75
2021/06/21 21:45:50;;;;;;;4.33;3.93;;;;;15.50;100798.00;;;;10462932;28;20220;-75
2021/06/21 21:50:52;;;;;;;5.73;3.80;;;;;15.50;100796.00;;;;10479778;28;20205;-75
2021/06/21 21:55:54;;;;;;;4.30;3.90;;;;;15.40;100805.00;;;;10489136;28;20280;-75
2021/06/21 22:00:56;;;;;;;4.47;3.77;;;;;15.40;100789.00;;;;10503913;28;20200;-75
2021/06/21 22:05:58;;;;;;;4.53;3.87;;;;;15.30;100778.00;;;;10503169;28;20269;-75
2021/06/21 22:11:01;;;;;;;3.97;3.60;;;;;15.20;100793.00;;;;10503993;28;20265;-75
2021/06/21 22:16:04;;;;;;;5.70;3.80;;;;;15.20;100800.00;;;;10520460;28;20197;-75
2021/06/21 22:21:06;;;;;;;4.97;4.03;;;;;15.10;100801.00;;;;10503881;28;20667;-75
2021/06/21 22:26:08;;;;;;;4.43;4.00;;;;;15.10;100806.00;;;;10479216;28;20228;-75
2021/06/21 22:31:10;;;;;;;5.50;5.00;;;;;15.00;100810.00;;;;10462731;28;20225;-75
2021/06/21 22:36:12;;;;;;;9.30;5.50;;;;;15.00;100795.00;;;;10478390;28;20221;-75
2021/06/21 22:41:14;;;;;;;6.70;6.00;;;;;14.90;100794.00;;;;10478358;28;20553;-75
2021/06/21 22:46:15;;;;;;;8.13;7.03;;;;;14.70;100790.00;;;;10478589;28;20620;-75
2021/06/21 22:51:18;;;;;;;12.93;7.30;;;;;14.70;100790.00;;;;10462753;28;20247;-75
2021/06/21 22:56:19;;;;;;;9.50;7.57;;;;;14.50;100787.00;;;;10461705;28;20201;-75
2021/06/21 23:01:21;;;;;;;8.10;7.40;;;;;14.50;100782.00;;;;10461795;28;20194;-75
2021/06/21 23:06:23;;;;;;;11.80;8.10;;;;;14.40;100786.00;;;;10461311;28;20225;-75
2021/06/21 23:11:25;;;;;;;10.10;7.43;;;;;14.30;100790.00;;;;10496311;28;20189;-75
2021/06/21 23:16:28;;;;;;;8.00;7.20;;;;;14.30;100787.00;;;;10464008;28;20189;-75
2021/06/21 23:21:30;;;;;;;9.87;6.73;;;;;14.30;100793.00;;;;10468578;28;20243;-75
2021/06/21 23:26:32;;;;;;;15.67;7.47;;;;;14.30;100804.00;;;;10502988;28;20221;-77
2021/06/21 23:31:34;;;;;;;9.20;6.67;;;;;14.20;100807.00;;;;10488336;28;20197;-76
2021/06/21 23:36:36;;;;;;;8.73;6.73;;;;;14.20;100815.00;;;;10467668;28;20693;-75
2021/06/21 23:41:38;;;;;;;8.60;6.87;;;;;14.30;100838.00;;;;10467651;28;20255;-76
2021/06/21 23:46:40;;;;;;;7.23;6.40;;;;;14.30;100830.00;;;;10499328;28;20675;-75
2021/06/21 23:51:41;;;;;;;9.00;6.60;;;;;14.30;100835.00;;;;10544186;28;20185;-75
2021/06/21 23:56:43;;;;;;;11.13;6.13;;;;;14.30;100829.00;;;;10485563;28;20205;-76
